Big Sugar Creek (Missouri), Powell (07188653)

StateMissouriCurrentGood (519 cfs)
RiverBig Sugar CreekFlood - The river is flooding. Obstacles can be treacherous or deadly. The river should be avoided at this stage for casual trips and definitely for the inexperienced. Trips should be attempted only with protective gear and equipment.Flood(none)
Updated2019-10-14 3:15 (53 minutes ago)High - The river is high and potentially dangerous, especially for the young and / or inexperienced. Normal stream obstacles are sometimes difficult to navigate. Extended distances can be attempted, but canoe travel may not be advisable.High(none)
Discharge519 cfs (median: 33 cfs)Good - Conditions are ideal for a canoe or kayak. Boats typically will drag on fewer than one-quarter of riffles, if at all, and portages are unnecessary or rare. Normal float lengths can be attempted without a problem.Good80
Height6.4 feetLow - River is low but can still be floated. Some riffles are okay but most come with significant dragging and might need a portage. Float lengths should be reduced to accommodate low flow, dragging, and portages.Low50
TrendFalling (falling over 24 hours)Poor - River is too low to float comfortably. Most or all riffles will drag or must be portaged and some obstacles (such as slick shelf rock) cause undue problems. Avoid the river at this stage for casual paddling trips.Poor(none)
USGSExternal icon USGS Site for Powell (07188653)LocationExternal icon Google Maps

Trending Data

Plot Image
ObservationHeightDischargeMaximum
Discharge
Minimum
Discharge
Mean
Discharge
P05P10P20P25P50
(Median)
P75P80P90P95
2019-10-14 03:15 6.40 519 1010 (2015) 5 (2007) 104 6 9 11 33 72 96 356
2019-10-14 01:15 6.43 533 1010 (2015) 5 (2007) 104 6 9 11 33 72 96 356
2019-10-14 00:15 6.45 542 1010 (2015) 5 (2007) 104 6 9 11 33 72 96 356
2019-10-13 23:15 6.46 546 2020 (2015) 5 (2007) 170 6 9 11 30 81 151 456
2019-10-13 22:15 6.48 555 2020 (2015) 5 (2007) 170 6 9 11 30 81 151 456
2019-10-13 21:15 6.51 569 2020 (2015) 5 (2007) 170 6 9 11 30 81 151 456
2019-10-13 20:15 6.53 579 2020 (2015) 5 (2007) 170 6 9 11 30 81 151 456
2019-10-13 19:15 6.55 588 2020 (2015) 5 (2007) 170 6 9 11 30 81 151 456
2019-10-13 18:15 6.57 598 2020 (2015) 5 (2007) 170 6 9 11 30 81 151 456
2019-10-13 17:15 6.59 607 2020 (2015) 5 (2007) 170 6 9 11 30 81 151 456
2019-10-13 16:15 6.61 617 2020 (2015) 5 (2007) 170 6 9 11 30 81 151 456
2019-10-13 15:15 6.63 627 2020 (2015) 5 (2007) 170 6 9 11 30 81 151 456
2019-10-13 14:15 6.66 642 2020 (2015) 5 (2007) 170 6 9 11 30 81 151 456
2019-10-13 13:15 6.68 652 2020 (2015) 5 (2007) 170 6 9 11 30 81 151 456
2019-10-13 12:15 6.71 667 2020 (2015) 5 (2007) 170 6 9 11 30 81 151 456
2019-10-13 11:15 6.73 677 2020 (2015) 5 (2007) 170 6 9 11 30 81 151 456
2019-10-13 10:15 6.76 692 2020 (2015) 5 (2007) 170 6 9 11 30 81 151 456
2019-10-13 09:15 6.79 708 2020 (2015) 5 (2007) 170 6 9 11 30 81 151 456
2019-10-13 08:15 6.82 724 2020 (2015) 5 (2007) 170 6 9 11 30 81 151 456
2019-10-13 07:15 6.84 735 2020 (2015) 5 (2007) 170 6 9 11 30 81 151 456
2019-10-13 06:15 6.87 751 2020 (2015) 5 (2007) 170 6 9 11 30 81 151 456
2019-10-13 05:15 6.91 773 2020 (2015) 5 (2007) 170 6 9 11 30 81 151 456
2019-10-13 04:15 6.94 789 2020 (2015) 5 (2007) 170 6 9 11 30 81 151 456
2019-10-13 03:15 6.97 806 2020 (2015) 5 (2007) 170 6 9 11 30 81 151 456
2019-10-13 02:15 7.00 823 2020 (2015) 5 (2007) 170 6 9 11 30 81 151 456
2019-10-13 01:15 7.04 846 2020 (2015) 5 (2007) 170 6 9 11 30 81 151 456
2019-10-12 23:15 7.11 888 349 (2010) 5 (2007) 66 6 9 11 23 70 101 237
2019-10-12 22:15 7.15 912 349 (2010) 5 (2007) 66 6 9 11 23 70 101 237
2019-10-12 21:15 7.19 936 349 (2010) 5 (2007) 66 6 9 11 23 70 101 237
2019-10-12 20:15 7.24 967 349 (2010) 5 (2007) 66 6 9 11 23 70 101 237
2019-10-12 19:15 7.28 992 349 (2010) 5 (2007) 66 6 9 11 23 70 101 237
2019-10-12 18:15 7.32 1020 349 (2010) 5 (2007) 66 6 9 11 23 70 101 237
2019-10-12 17:15 7.38 1060 349 (2010) 5 (2007) 66 6 9 11 23 70 101 237
2019-10-12 16:15 7.43 1090 349 (2010) 5 (2007) 66 6 9 11 23 70 101 237
2019-10-12 15:15 7.48 1120 349 (2010) 5 (2007) 66 6 9 11 23 70 101 237
2019-10-12 14:15 7.54 1160 349 (2010) 5 (2007) 66 6 9 11 23 70 101 237
2019-10-12 13:15 7.60 1210 349 (2010) 5 (2007) 66 6 9 11 23 70 101 237
2019-10-12 12:15 7.66 1250 349 (2010) 5 (2007) 66 6 9 11 23 70 101 237
2019-10-12 11:15 7.74 1310 349 (2010) 5 (2007) 66 6 9 11 23 70 101 237
2019-10-12 10:15 7.78 1340 349 (2010) 5 (2007) 66 6 9 11 23 70 101 237
2019-10-12 09:15 7.86 1400 349 (2010) 5 (2007) 66 6 9 11 23 70 101 237
2019-10-12 08:15 7.92 1440 349 (2010) 5 (2007) 66 6 9 11 23 70 101 237
2019-10-12 07:15 8.00 1510 349 (2010) 5 (2007) 66 6 9 11 23 70 101 237
2019-10-12 06:15 8.09 1580 349 (2010) 5 (2007) 66 6 9 11 23 70 101 237
2019-10-12 05:15 8.16 1640 349 (2010) 5 (2007) 66 6 9 11 23 70 101 237
2019-10-12 04:15 8.26 1720 349 (2010) 5 (2007) 66 6 9 11 23 70 101 237
2019-10-12 03:15 8.38 1830 349 (2010) 5 (2007) 66 6 9 11 23 70 101 237
2019-10-12 02:15 8.47 1910 349 (2010) 5 (2007) 66 6 9 11 23 70 101 237
2019-10-12 01:15 8.56 1990 349 (2010) 5 (2007) 66 6 9 11 23 70 101 237
2019-10-12 00:15 8.67 2090 349 (2010) 5 (2007) 66 6 9 11 23 70 101 237
2019-10-11 23:15 8.83 2240 507 (2010) 5 (2013) 68 5 8 8 20 67 92 279
2019-10-11 22:15 8.97 2380 507 (2010) 5 (2013) 68 5 8 8 20 67 92 279
2019-10-11 20:15 9.32 2740 507 (2010) 5 (2013) 68 5 8 8 20 67 92 279
2019-10-11 19:15 9.54 2980 507 (2010) 5 (2013) 68 5 8 8 20 67 92 279
2019-10-11 18:15 9.79 3260 507 (2010) 5 (2013) 68 5 8 8 20 67 92 279
2019-10-11 17:15 10.06 3590 507 (2010) 5 (2013) 68 5 8 8 20 67 92 279
2019-10-11 16:15 10.42 4060 507 (2010) 5 (2013) 68 5 8 8 20 67 92 279
2019-10-11 15:15 10.82 4610 507 (2010) 5 (2013) 68 5 8 8 20 67 92 279
2019-10-11 14:15 11.25 5240 507 (2010) 5 (2013) 68 5 8 8 20 67 92 279
2019-10-11 13:15 11.88 6260 507 (2010) 5 (2013) 68 5 8 8 20 67 92 279
2019-10-11 12:15 12.63 7590 507 (2010) 5 (2013) 68 5 8 8 20 67 92 279
2019-10-11 11:15 13.64 9620 507 (2010) 5 (2013) 68 5 8 8 20 67 92 279
2019-10-11 10:15 14.87 12500 507 (2010) 5 (2013) 68 5 8 8 20 67 92 279
2019-10-11 09:15 15.98 15400 507 (2010) 5 (2013) 68 5 8 8 20 67 92 279
2019-10-11 08:15 16.95 18200 507 (2010) 5 (2013) 68 5 8 8 20 67 92 279
2019-10-11 07:15 17.43 19700 507 (2010) 5 (2013) 68 5 8 8 20 67 92 279
2019-10-11 06:15 17.59 20200 507 (2010) 5 (2013) 68 5 8 8 20 67 92 279
2019-10-11 04:15 16.15 15800 507 (2010) 5 (2013) 68 5 8 8 20 67 92 279
2019-10-11 03:15 14.08 10600 507 (2010) 5 (2013) 68 5 8 8 20 67 92 279
2019-10-11 02:15 11.90 6290 507 (2010) 5 (2013) 68 5 8 8 20 67 92 279
2019-10-11 01:15 9.95 3460 507 (2010) 5 (2013) 68 5 8 8 20 67 92 279
2019-10-11 00:15 8.70 2120 507 (2010) 5 (2013) 68 5 8 8 20 67 92 279
2019-10-10 23:15 7.99 1440 1050 (2010) 5 (2013) 92 5 8 8 20 51 73 279
2019-10-10 22:15 6.04 248 1050 (2010) 5 (2013) 92 5 8 8 20 51 73 279
2019-10-10 21:15 5.82 181 1050 (2010) 5 (2013) 92 5 8 8 20 51 73 279
2019-10-10 20:15 5.73 159 1050 (2010) 5 (2013) 92 5 8 8 20 51 73 279
2019-10-10 19:15 5.69 151 1050 (2010) 5 (2013) 92 5 8 8 20 51 73 279
2019-10-10 18:15 5.66 144 1050 (2010) 5 (2013) 92 5 8 8 20 51 73 279
2019-10-10 17:15 5.66 144 1050 (2010) 5 (2013) 92 5 8 8 20 51 73 279
2019-10-10 16:15 5.67 146 1050 (2010) 5 (2013) 92 5 8 8 20 51 73 279
2019-10-10 15:15 5.70 153 1050 (2010) 5 (2013) 92 5 8 8 20 51 73 279
2019-10-10 14:15 5.66 144 1050 (2010) 5 (2013) 92 5 8 8 20 51 73 279
2019-10-10 13:15 5.65 142 1050 (2010) 5 (2013) 92 5 8 8 20 51 73 279
2019-10-10 12:15 5.66 144 1050 (2010) 5 (2013) 92 5 8 8 20 51 73 279
2019-10-10 11:15 5.67 146 1050 (2010) 5 (2013) 92 5 8 8 20 51 73 279
2019-10-10 10:15 5.67 146 1050 (2010) 5 (2013) 92 5 8 8 20 51 73 279
2019-10-10 09:15 5.67 146 1050 (2010) 5 (2013) 92 5 8 8 20 51 73 279
2019-10-10 08:15 5.68 149 1050 (2010) 5 (2013) 92 5 8 8 20 51 73 279
2019-10-10 07:15 5.69 151 1050 (2010) 5 (2013) 92 5 8 8 20 51 73 279
2019-10-10 06:15 5.69 151 1050 (2010) 5 (2013) 92 5 8 8 20 51 73 279
2019-10-10 05:15 5.71 155 1050 (2010) 5 (2013) 92 5 8 8 20 51 73 279
2019-10-10 04:15 5.71 155 1050 (2010) 5 (2013) 92 5 8 8 20 51 73 279
2019-10-10 03:15 5.72 157 1050 (2010) 5 (2013) 92 5 8 8 20 51 73 279
2019-10-10 02:15 5.73 159 1050 (2010) 5 (2013) 92 5 8 8 20 51 73 279
2019-10-10 01:15 5.74 161 1050 (2010) 5 (2013) 92 5 8 8 20 51 73 279
2019-10-10 00:15 5.74 161 1050 (2010) 5 (2013) 92 5 8 8 20 51 73 279
2019-10-09 23:15 5.75 164 5710 (2010) 5 (2013) 342 5 7 8 18 31 55 693
2019-10-09 22:15 5.76 166 5710 (2010) 5 (2013) 342 5 7 8 18 31 55 693
2019-10-09 21:15 5.77 169 5710 (2010) 5 (2013) 342 5 7 8 18 31 55 693
2019-10-09 20:15 5.78 171 5710 (2010) 5 (2013) 342 5 7 8 18 31 55 693
2019-10-09 19:15 5.79 174 5710 (2010) 5 (2013) 342 5 7 8 18 31 55 693
2019-10-09 18:15 5.80 176 5710 (2010) 5 (2013) 342 5 7 8 18 31 55 693
2019-10-09 17:15 5.81 179 5710 (2010) 5 (2013) 342 5 7 8 18 31 55 693
2019-10-09 16:15 5.82 181 5710 (2010) 5 (2013) 342 5 7 8 18 31 55 693
2019-10-09 15:15 5.83 184 5710 (2010) 5 (2013) 342 5 7 8 18 31 55 693
2019-10-09 14:15 5.85 189 5710 (2010) 5 (2013) 342 5 7 8 18 31 55 693
2019-10-09 13:15 5.85 189 5710 (2010) 5 (2013) 342 5 7 8 18 31 55 693
2019-10-09 12:15 5.86 192 5710 (2010) 5 (2013) 342 5 7 8 18 31 55 693
2019-10-09 11:15 5.88 197 5710 (2010) 5 (2013) 342 5 7 8 18 31 55 693
2019-10-09 10:15 5.89 200 5710 (2010) 5 (2013) 342 5 7 8 18 31 55 693
2019-10-09 09:15 5.91 206 5710 (2010) 5 (2013) 342 5 7 8 18 31 55 693
2019-10-09 08:15 5.92 209 5710 (2010) 5 (2013) 342 5 7 8 18 31 55 693
2019-10-09 07:15 5.93 212 5710 (2010) 5 (2013) 342 5 7 8 18 31 55 693
2019-10-09 05:15 5.96 221 5710 (2010) 5 (2013) 342 5 7 8 18 31 55 693
2019-10-09 04:15 5.97 225 5710 (2010) 5 (2013) 342 5 7 8 18 31 55 693
2019-10-09 03:15 5.99 231 5710 (2010) 5 (2013) 342 5 7 8 18 31 55 693
2019-10-09 02:15 6.00 234 5710 (2010) 5 (2013) 342 5 7 8 18 31 55 693
2019-10-09 01:15 6.02 241 5710 (2010) 5 (2013) 342 5 7 8 18 31 55 693
2019-10-09 00:15 6.04 248 5710 (2010) 5 (2013) 342 5 7 8 18 31 55 693
2019-10-08 23:15 6.05 251 249 (2010) 5 (2013) 40 5 7 7 17 33 62 162
2019-10-08 22:15 6.07 258 249 (2010) 5 (2013) 40 5 7 7 17 33 62 162
2019-10-08 21:15 6.09 265 249 (2010) 5 (2013) 40 5 7 7 17 33 62 162
2019-10-08 20:15 6.11 272 249 (2010) 5 (2013) 40 5 7 7 17 33 62 162
2019-10-08 19:15 6.13 279 249 (2010) 5 (2013) 40 5 7 7 17 33 62 162
2019-10-08 18:15 6.14 283 249 (2010) 5 (2013) 40 5 7 7 17 33 62 162
2019-10-08 17:15 6.16 290 249 (2010) 5 (2013) 40 5 7 7 17 33 62 162
2019-10-08 16:15 6.19 302 249 (2010) 5 (2013) 40 5 7 7 17 33 62 162
2019-10-08 15:15 6.21 309 249 (2010) 5 (2013) 40 5 7 7 17 33 62 162
2019-10-08 14:15 6.23 317 249 (2010) 5 (2013) 40 5 7 7 17 33 62 162
2019-10-08 13:15 6.25 325 249 (2010) 5 (2013) 40 5 7 7 17 33 62 162
2019-10-08 12:15 6.27 333 249 (2010) 5 (2013) 40 5 7 7 17 33 62 162
2019-10-08 11:15 6.30 345 249 (2010) 5 (2013) 40 5 7 7 17 33 62 162
2019-10-08 10:15 6.33 357 249 (2010) 5 (2013) 40 5 7 7 17 33 62 162
2019-10-08 09:15 6.36 370 249 (2010) 5 (2013) 40 5 7 7 17 33 62 162
2019-10-08 08:15 6.39 383 249 (2010) 5 (2013) 40 5 7 7 17 33 62 162
2019-10-08 06:15 6.45 409 249 (2010) 5 (2013) 40 5 7 7 17 33 62 162
2019-10-08 05:15 6.48 423 249 (2010) 5 (2013) 40 5 7 7 17 33 62 162
2019-10-08 04:15 6.51 437 249 (2010) 5 (2013) 40 5 7 7 17 33 62 162
2019-10-08 03:15 6.55 455 249 (2010) 5 (2013) 40 5 7 7 17 33 62 162
2019-10-08 02:15 6.58 470 249 (2010) 5 (2013) 40 5 7 7 17 33 62 162
2019-10-08 01:15 6.62 489 249 (2010) 5 (2013) 40 5 7 7 17 33 62 162
2019-10-08 00:15 6.67 514 249 (2010) 5 (2013) 40 5 7 7 17 33 62 162
2019-10-07 23:15 6.71 535 169 (2008) 5 (2013) 29 5 6 7 16 25 36 83
2019-10-07 22:15 6.77 567 169 (2008) 5 (2013) 29 5 6 7 16 25 36 83
2019-10-07 21:15 6.79 578 169 (2008) 5 (2013) 29 5 6 7 16 25 36 83
2019-10-07 20:15 6.87 622 169 (2008) 5 (2013) 29 5 6 7 16 25 36 83
2019-10-07 19:15 6.92 650 169 (2008) 5 (2013) 29 5 6 7 16 25 36 83
2019-10-07 18:15 6.98 686 169 (2008) 5 (2013) 29 5 6 7 16 25 36 83
2019-10-07 17:15 7.05 728 169 (2008) 5 (2013) 29 5 6 7 16 25 36 83
2019-10-07 16:15 7.12 772 169 (2008) 5 (2013) 29 5 6 7 16 25 36 83
2019-10-07 15:15 7.18 811 169 (2008) 5 (2013) 29 5 6 7 16 25 36 83
2019-10-07 14:15 7.26 864 169 (2008) 5 (2013) 29 5 6 7 16 25 36 83
2019-10-07 13:15 7.37 940 169 (2008) 5 (2013) 29 5 6 7 16 25 36 83
2019-10-07 12:15 7.47 1010 169 (2008) 5 (2013) 29 5 6 7 16 25 36 83
2019-10-07 11:15 7.57 1090 169 (2008) 5 (2013) 29 5 6 7 16 25 36 83
2019-10-07 10:15 7.70 1190 169 (2008) 5 (2013) 29 5 6 7 16 25 36 83
2019-10-07 09:15 7.86 1320 169 (2008) 5 (2013) 29 5 6 7 16 25 36 83
2019-10-07 08:15 7.98 1430 169 (2008) 5 (2013) 29 5 6 7 16 25 36 83
2019-10-07 07:15 8.15 1590 169 (2008) 5 (2013) 29 5 6 7 16 25 36 83
2019-10-07 06:15 8.32 1750 169 (2008) 5 (2013) 29 5 6 7 16 25 36 83
2019-10-07 05:15 8.56 1990 169 (2008) 5 (2013) 29 5 6 7 16 25 36 83
2019-10-07 04:15 8.81 2220 169 (2008) 5 (2013) 29 5 6 7 16 25 36 83
2019-10-07 03:15 9.10 2510 169 (2008) 5 (2013) 29 5 6 7 16 25 36 83
2019-10-07 02:15 9.49 2920 169 (2008) 5 (2013) 29 5 6 7 16 25 36 83
2019-10-07 01:15 10.03 3550 169 (2008) 5 (2013) 29 5 6 7 16 25 36 83
2019-10-07 00:15 10.95 4790 169 (2008) 5 (2013) 29 5 6 7 16 25 36 83

A total of 166 rows are displayed for years 2001 through 2018.

Trips for Big Sugar Creek (Missouri), Powell (07188653)

DateStartEndDistanceConditionDischargeHeightFishingDetails
Click for details2005-05-29 Cyclone Big Elk Camp Total trip distance: 9.9 miles9.9 Good 130 None NoneNone Edmond, Alex
Edmond, Brian
Edmond, Joseph
Edmond, Alex; Edmond, Brian; Edmond, Joseph
No notes for this trip<i>No notes for this trip</i> USGS Gauge Data:
Powell (07188653)
Discharge: 130
Height:
<b>USGS Gauge Data:</b></br />Powell (07188653)<br />Discharge: 130<br />Height:
Source: EdmondSource: Edmond
Click for details2016-10-15 Powell Cyclone (B) Total trip distance: 14.6 miles9.6 Good 81 5.10 Fair LMB
LSF
RB
SMB
LMB, LSF, RB, SMB
Van Someren, TomVan Someren, Tom The water level rating should actually be right between low and good. There was still enough water to navigate, but I had to push through several low water gravel bar-ish areas. Got bit by a spider on my right side under my arm.The water level rating should actually be right between low and good. There was still enough water to navigate, but I had to push through several low water gravel bar-ish areas. Got bit by a spider on my right side under my arm. USGS Gauge Data:
Powell (07188653)
Discharge: 81
Height: 5.10
<b>USGS Gauge Data:</b></br />Powell (07188653)<br />Discharge: 81<br />Height: 5.10
Source: Van SomerenSource: Van Someren
Click for details2016-10-16 Cyclone (B) Deep Ford Total trip distance: 14.6 miles5.0 Good 66 4.99 Fair LMB
LSF
RB
SMB
LMB, LSF, RB, SMB
Van Someren, TomVan Someren, Tom The water level rating should actually be right between low and good. There was still enough water to navigate, but I had to push through several low water gravel bar-ish areas. Got bit by a spider on my right side under my arm.The water level rating should actually be right between low and good. There was still enough water to navigate, but I had to push through several low water gravel bar-ish areas. Got bit by a spider on my right side under my arm. USGS Gauge Data:
Powell (07188653)
Discharge: 66
Height: 4.99
<b>USGS Gauge Data:</b></br />Powell (07188653)<br />Discharge: 66<br />Height: 4.99
Source: Van SomerenSource: Van Someren
Click for details2014-11-10 Deep Ford Elk River Total trip distance: 4.1 miles4.1 Good 48 4.28 Fair SMBSMB Fillmore, Brian
Fillmore, Rebecca
Javorsek, Rachie
Fillmore, Brian; Fillmore, Rebecca; Javorsek, Rachie
No notes for this trip<i>No notes for this trip</i> USGS Gauge Data:
Powell (07188653)
Discharge: 48
Height: 4.28
<b>USGS Gauge Data:</b></br />Powell (07188653)<br />Discharge: 48<br />Height: 4.28
Source: FillmoreSource: Fillmore
Click for details2013-06-27 Mac's Big Rock Sugar Island Total trip distance: 4.0 miles4.0 Low 39 3.90 Fair SMB
KSB
LSF
SMB, KSB, LSF
Fillmore, Allie
Fillmore, Brian
Fillmore, Jenny
Fillmore, Keith
Fillmore, Rebecca
Fillmore, Allie; Fillmore, Brian; Fillmore, Jenny; Fillmore, Keith; Fillmore, Rebecca
No notes for this trip<i>No notes for this trip</i> USGS Gauge Data:
Powell (07188653)
Discharge: 39
Height: 3.90
<b>USGS Gauge Data:</b></br />Powell (07188653)<br />Discharge: 39<br />Height: 3.90
Source: FillmoreSource: Fillmore

A total of 5 rows are displayed.

Trip Summary for Big Sugar Creek (Missouri), Powell (07188653)

Miles32.6
Trips4
People10
Dates5
Years4
Months4
Rows5
Sources3

Condition Descriptions

Fishing Conditions

Fish Species

Notes

Classic Trip List

The classic River Trips application is still available for use. It is updated with the new system using a data retrofit. It is no longer maintained. The original River Trips application is no longer updated (as of 1 Dec 2016) but can be checked for errors or for the condition of the data before it was converted to the new system.